createdAt,value
2023-03-05T00:06:35.476Z,-1.99
2023-03-05T00:16:35.410Z,-2.13
2023-03-05T00:26:35.459Z,-2.24
2023-03-05T00:36:35.451Z,-2.16
2023-03-05T00:46:35.546Z,-2.26
2023-03-05T00:56:35.488Z,-2.29
2023-03-05T01:06:35.539Z,-2.46
2023-03-05T01:16:35.463Z,-2.72
2023-03-05T01:26:35.491Z,-2.64
2023-03-05T01:36:35.490Z,-2.34
2023-03-05T01:46:35.508Z,-2.39
2023-03-05T01:56:35.521Z,-2.61
2023-03-05T02:06:35.551Z,-2.54
2023-03-05T02:16:35.631Z,-2.69
2023-03-05T02:26:35.543Z,-2.91
2023-03-05T02:36:35.527Z,-2.82
2023-03-05T02:46:35.570Z,-2.9
2023-03-05T02:56:35.632Z,-2.96
2023-03-05T03:06:35.563Z,-2.9
2023-03-05T03:16:35.703Z,-2.85
2023-03-05T03:26:35.634Z,-2.87
2023-03-05T03:36:35.585Z,-2.97
2023-03-05T03:46:35.679Z,-3.02
2023-03-05T03:56:35.579Z,-3.23
2023-03-05T04:06:35.665Z,-3.25
2023-03-05T04:16:35.707Z,-3.28
2023-03-05T04:26:35.705Z,-3.54
2023-03-05T04:36:35.682Z,-3.52
2023-03-05T04:46:35.741Z,-3.59
2023-03-05T04:56:35.671Z,-3.4
2023-03-05T05:06:35.690Z,-3.45
2023-03-05T05:16:35.749Z,-3.57
2023-03-05T05:26:35.738Z,-3.58
2023-03-05T05:36:35.702Z,-3.75
2023-03-05T05:46:35.852Z,-3.76
2023-03-05T05:56:35.746Z,-3.74
2023-03-05T06:06:35.761Z,-3.39
2023-03-05T06:16:35.792Z,-3.11
2023-03-05T06:26:35.788Z,-2.79
2023-03-05T06:36:35.904Z,-2.48
2023-03-05T06:46:35.774Z,-2.2
2023-03-05T06:56:35.749Z,-1.9
2023-03-05T07:06:35.924Z,-1.66
2023-03-05T07:16:35.796Z,-0.76
2023-03-05T07:26:35.854Z,-0.27
2023-03-05T07:36:35.778Z,-0.12
2023-03-05T07:46:35.821Z,0.45
2023-03-05T07:56:35.839Z,0.86
2023-03-05T08:06:35.800Z,1.46
2023-03-05T08:16:35.826Z,2.99
2023-03-05T08:26:35.818Z,3.9
2023-03-05T08:36:35.846Z,3.49
2023-03-05T08:46:35.933Z,4.25
2023-03-05T08:56:35.823Z,4.91
2023-03-05T09:06:35.866Z,4.75
2023-03-05T09:16:35.828Z,5.41
2023-03-05T09:26:35.864Z,5.6
2023-03-05T09:36:35.813Z,5.8
2023-03-05T09:46:35.870Z,6.37
2023-03-05T09:56:35.790Z,7.13
2023-03-05T10:06:35.882Z,7.67
2023-03-05T10:16:35.799Z,8.16
2023-03-05T10:26:35.861Z,8.45
2023-03-05T10:36:35.804Z,8.64
2023-03-05T10:46:35.848Z,8.93
2023-03-05T10:56:35.770Z,9.84
2023-03-05T11:06:35.833Z,9.17
2023-03-05T11:16:35.798Z,9.8
2023-03-05T11:26:35.817Z,10.25
2023-03-05T11:36:35.831Z,10.58
2023-03-05T11:46:35.802Z,10.95
2023-03-05T11:56:35.740Z,10.31
2023-03-05T12:06:35.749Z,9.54
2023-03-05T12:16:35.812Z,9.13
2023-03-05T12:26:35.746Z,9
2023-03-05T12:36:35.773Z,8.96
2023-03-05T12:46:35.947Z,9.09
2023-03-05T12:56:35.724Z,9.23
2023-03-05T13:06:35.807Z,9.26
2023-03-05T13:16:35.759Z,9.27
2023-03-05T13:26:35.734Z,9.5
2023-03-05T13:36:35.710Z,9.52
2023-03-05T13:46:35.701Z,9.48
2023-03-05T14:06:35.729Z,9.7
2023-03-05T14:16:35.772Z,9.71
2023-03-05T14:26:35.700Z,9.6
2023-03-05T14:36:35.699Z,9.62
2023-03-05T14:46:35.701Z,9.6
2023-03-05T14:56:35.685Z,9.6
2023-03-05T15:06:35.723Z,9.48
2023-03-05T15:16:35.671Z,9.36
2023-03-05T15:26:35.746Z,9.15
2023-03-05T15:36:35.701Z,8.99
2023-03-05T15:46:35.768Z,8.75
2023-03-05T15:56:35.674Z,8.4
2023-03-05T16:06:35.679Z,7.96
2023-03-05T16:16:35.643Z,7.49
2023-03-05T16:26:35.733Z,7.24
2023-03-05T16:36:35.663Z,6.72
2023-03-05T16:46:35.738Z,6.26
2023-03-05T16:56:35.658Z,6.05
2023-03-05T17:06:35.668Z,5.52
2023-03-05T17:16:35.800Z,5.08
2023-03-05T17:26:35.712Z,4.58
2023-03-05T17:36:35.658Z,4.02
2023-03-05T17:46:35.673Z,3.64
2023-03-05T17:56:35.665Z,3.35
2023-03-05T18:06:35.720Z,2.85
2023-03-05T18:16:35.807Z,2.4
2023-03-05T18:26:35.740Z,2.13
2023-03-05T18:36:35.696Z,1.73
2023-03-05T18:46:35.740Z,1.7
2023-03-05T18:56:35.738Z,1.49
2023-03-05T19:06:35.704Z,1.28
2023-03-05T19:16:35.710Z,1.34
2023-03-05T19:26:35.774Z,1.49
2023-03-05T19:36:35.755Z,1.27
2023-03-05T19:46:35.772Z,1.05
2023-03-05T19:56:35.744Z,0.83
2023-03-05T20:06:35.727Z,0.67
2023-03-05T20:16:35.723Z,0.47
2023-03-05T20:26:35.771Z,0.28
2023-03-05T20:36:35.752Z,0.4
2023-03-05T20:46:35.816Z,0.52
2023-03-05T20:56:35.844Z,0.51
2023-03-05T21:06:35.799Z,0.66
2023-03-05T21:16:35.830Z,1.04
2023-03-05T21:26:35.775Z,1.18
2023-03-05T21:36:35.846Z,1.26
2023-03-05T21:46:35.791Z,1.37
2023-03-05T21:56:35.809Z,1.37
2023-03-05T22:06:35.811Z,1.23
2023-03-05T22:16:35.856Z,1.18
2023-03-05T22:26:35.818Z,0.92
2023-03-05T22:36:35.781Z,0.69
2023-03-05T22:46:35.805Z,0.53
2023-03-05T22:56:35.812Z,0.39
2023-03-05T23:06:35.851Z,0.35
2023-03-05T23:16:35.826Z,0.49
2023-03-05T23:26:35.840Z,0.73
2023-03-05T23:36:35.817Z,0.82
2023-03-05T23:46:35.872Z,0.94
2023-03-05T23:56:35.835Z,0.9
